createdAt,value
2022-10-26T00:01:51.491Z,100691.00
2022-10-26T00:06:53.918Z,100699.88
2022-10-26T00:11:56.158Z,100710.88
2022-10-26T00:16:58.499Z,100706.16
2022-10-26T00:22:00.756Z,100705.19
2022-10-26T00:27:03.069Z,100713.78
2022-10-26T00:32:06.752Z,100701.31
2022-10-26T00:37:09.778Z,100710.38
2022-10-26T00:42:16.052Z,100720.31
2022-10-26T00:47:23.709Z,100712.53
2022-10-26T00:52:26.118Z,100715.44
2022-10-26T00:57:28.525Z,100722.50
2022-10-26T01:02:30.882Z,100713.59
2022-10-26T01:07:33.667Z,100688.59
2022-10-26T01:12:36.026Z,100709.63
2022-10-26T01:17:52.098Z,100715.91
2022-10-26T01:23:06.380Z,100714.81
2022-10-26T01:28:21.103Z,100716.94
2022-10-26T01:33:47.104Z,100719.38
2022-10-26T01:38:58.798Z,100725.69
2022-10-26T01:44:07.988Z,100718.00
2022-10-26T01:49:12.700Z,100731.38
2022-10-26T01:54:15.044Z,100717.16
2022-10-26T01:59:37.417Z,100722.03
2022-10-26T02:04:42.383Z,100733.25
2022-10-26T02:10:18.434Z,100728.81
2022-10-26T02:15:35.971Z,100721.69
2022-10-26T02:20:42.714Z,100736.25
2022-10-26T02:25:51.165Z,100722.53
2022-10-26T02:30:56.406Z,100739.19
2022-10-26T02:36:01.180Z,100729.13
2022-10-26T02:41:04.028Z,100735.91
2022-10-26T02:46:12.395Z,100738.06
2022-10-26T02:51:21.286Z,100744.34
2022-10-26T02:56:45.578Z,100748.38
2022-10-26T03:01:48.520Z,100751.63
2022-10-26T03:06:54.885Z,100759.13
2022-10-26T03:11:57.130Z,100757.53
2022-10-26T03:16:59.416Z,100753.34
2022-10-26T03:22:01.657Z,100759.72
2022-10-26T03:27:04.107Z,100765.38
2022-10-26T03:32:07.272Z,100778.00
2022-10-26T03:37:09.630Z,100769.44
2022-10-26T03:42:12.473Z,100777.41
2022-10-26T03:47:14.909Z,100772.47
2022-10-26T03:52:17.309Z,100773.06
2022-10-26T03:57:19.663Z,100788.97
2022-10-26T04:02:21.925Z,100787.84
2022-10-26T04:07:24.330Z,100774.63
2022-10-26T04:12:26.799Z,100781.31
2022-10-26T04:17:29.126Z,100778.59
2022-10-26T04:22:31.358Z,100782.69
2022-10-26T04:27:34.033Z,100775.78
2022-10-26T04:32:36.572Z,100781.16
2022-10-26T04:37:38.862Z,100786.69
2022-10-26T04:42:48.192Z,100799.88
2022-10-26T04:48:08.385Z,100795.53
2022-10-26T04:53:12.516Z,100797.41
2022-10-26T04:58:14.810Z,100786.19
2022-10-26T05:03:17.258Z,100805.25
2022-10-26T05:08:19.603Z,100807.25
2022-10-26T05:13:22.195Z,100805.91
2022-10-26T05:18:24.803Z,100814.13
2022-10-26T05:23:27.286Z,100784.06
2022-10-26T05:28:29.856Z,100816.03
2022-10-26T05:33:32.149Z,100829.88
2022-10-26T05:38:34.470Z,100837.81
2022-10-26T05:43:36.798Z,100837.53
2022-10-26T05:48:39.102Z,100832.44
2022-10-26T05:53:41.641Z,100832.75
2022-10-26T05:58:44.279Z,100840.38
2022-10-26T06:04:07.928Z,100856.19
2022-10-26T06:09:14.288Z,100860.31
2022-10-26T06:14:17.046Z,100864.91
2022-10-26T06:19:42.420Z,100872.59
2022-10-26T06:24:49.513Z,100875.88
2022-10-26T06:29:58.544Z,100861.72
2022-10-26T06:35:14.863Z,100870.44
2022-10-26T06:40:18.686Z,100875.25
2022-10-26T06:45:21.466Z,100872.84
2022-10-26T06:50:30.194Z,100896.00
2022-10-26T06:55:41.847Z,100887.31
2022-10-26T07:00:45.963Z,100878.03
2022-10-26T07:05:48.498Z,100899.91
2022-10-26T07:10:50.836Z,100906.97
2022-10-26T07:15:53.141Z,100911.38
2022-10-26T07:20:55.430Z,100904.78
2022-10-26T07:26:00.577Z,100914.13
2022-10-26T07:31:02.986Z,100917.09
2022-10-26T07:36:05.614Z,100929.91
2022-10-26T07:41:07.993Z,100928.53
2022-10-26T07:46:10.418Z,100929.91
2022-10-26T07:51:13.214Z,100933.47
2022-10-26T07:56:15.614Z,100933.53
2022-10-26T08:01:18.062Z,100932.19
2022-10-26T08:06:22.330Z,100950.78
2022-10-26T08:11:25.025Z,100955.44
2022-10-26T08:16:27.412Z,100966.84
2022-10-26T08:21:40.047Z,100969.91
2022-10-26T08:26:43.536Z,100965.53
2022-10-26T08:31:48.244Z,100969.38
2022-10-26T08:36:50.721Z,100971.03
2022-10-26T08:42:02.508Z,100984.91
2022-10-26T08:47:10.328Z,100977.81
2022-10-26T08:52:16.229Z,100993.09
2022-10-26T08:57:24.381Z,100999.66
2022-10-26T09:02:26.859Z,100996.31
2022-10-26T09:07:45.729Z,101009.50
2022-10-26T09:13:03.493Z,101004.72
2022-10-26T09:18:23.821Z,101008.44
2022-10-26T09:23:38.154Z,101009.50
2022-10-26T09:28:41.937Z,100998.25
2022-10-26T09:33:44.388Z,101010.03
2022-10-26T09:39:24.614Z,101013.91
2022-10-26T09:44:31.587Z,100998.06
2022-10-26T09:49:42.869Z,101016.09
2022-10-26T09:54:45.256Z,101014.19
2022-10-26T09:59:48.787Z,101024.56
2022-10-26T10:04:51.145Z,101025.09
2022-10-26T10:10:17.078Z,101023.44
2022-10-26T10:15:19.477Z,101020.13
2022-10-26T10:20:24.077Z,101030.00
2022-10-26T10:25:37.450Z,101037.44
2022-10-26T10:30:39.829Z,101034.38
2022-10-26T10:35:51.897Z,101043.09
2022-10-26T10:40:56.657Z,101050.00
2022-10-26T10:45:59.827Z,101040.41
2022-10-26T10:51:12.562Z,101040.94
2022-10-26T10:56:41.883Z,101046.69
2022-10-26T11:01:52.036Z,101053.00
2022-10-26T11:06:57.639Z,101049.16
2022-10-26T11:12:24.041Z,101048.31
2022-10-26T11:17:46.617Z,101053.47
2022-10-26T11:23:06.111Z,101065.25
2022-10-26T11:28:19.185Z,101064.19
2022-10-26T11:33:28.570Z,101062.28
2022-10-26T11:38:56.029Z,101066.41
2022-10-26T11:44:23.260Z,101063.94
2022-10-26T11:49:43.134Z,101059.56
2022-10-26T11:54:49.565Z,101066.09
2022-10-26T12:00:02.844Z,101063.38
2022-10-26T12:05:18.207Z,101055.19
2022-10-26T12:10:30.135Z,101059.25
2022-10-26T12:16:01.568Z,101065.78
2022-10-26T12:21:05.027Z,101058.16
2022-10-26T12:26:25.408Z,101060.59
2022-10-26T12:31:33.921Z,101066.09
2022-10-26T12:36:57.805Z,101071.03
2022-10-26T12:42:11.055Z,101069.66
2022-10-26T12:47:33.533Z,101071.31
2022-10-26T12:53:01.421Z,101052.63
2022-10-26T12:58:28.032Z,101054.63
2022-10-26T13:03:52.102Z,101064.78
2022-10-26T13:09:00.274Z,101066.97
2022-10-26T13:14:07.823Z,101062.59
2022-10-26T13:19:27.294Z,101066.38
2022-10-26T13:24:32.259Z,101071.59
2022-10-26T13:30:09.698Z,101071.59
2022-10-26T13:35:15.280Z,101065.84
2022-10-26T13:40:19.928Z,101089.59
2022-10-26T13:45:24.070Z,101084.44
2022-10-26T13:50:53.701Z,101081.16
2022-10-26T13:56:04.329Z,101086.91
2022-10-26T14:01:21.684Z,101102.44
2022-10-26T14:06:31.668Z,101102.50
2022-10-26T14:11:44.564Z,101099.75
2022-10-26T14:16:47.457Z,101093.94
2022-10-26T14:21:51.037Z,101112.56
2022-10-26T14:26:53.518Z,101102.69
2022-10-26T14:31:55.923Z,101102.19
2022-10-26T14:37:04.262Z,101113.06
2022-10-26T14:42:30.689Z,101102.19
2022-10-26T14:47:34.029Z,101108.22
2022-10-26T14:52:37.516Z,101101.91
2022-10-26T14:57:41.126Z,101098.38
2022-10-26T15:02:45.157Z,101103.03
2022-10-26T15:07:48.225Z,101103.03
2022-10-26T15:12:50.662Z,101112.03
2022-10-26T15:17:55.178Z,101101.94
2022-10-26T15:23:03.667Z,101109.06
2022-10-26T15:28:11.122Z,101116.41
2022-10-26T15:33:22.473Z,101105.50
2022-10-26T15:38:28.574Z,101114.25
2022-10-26T15:43:32.334Z,101127.34
2022-10-26T15:48:36.241Z,101130.09
2022-10-26T15:53:38.602Z,101117.44
2022-10-26T15:58:40.941Z,101119.91
2022-10-26T16:03:43.639Z,101132.16
2022-10-26T16:08:50.893Z,101136.44
2022-10-26T16:13:54.512Z,101137.53
2022-10-26T16:19:18.349Z,101145.16
2022-10-26T16:24:20.832Z,101146.50
2022-10-26T16:29:24.062Z,101147.13
2022-10-26T16:34:26.425Z,101147.72
2022-10-26T16:39:28.781Z,101147.97
2022-10-26T16:44:31.088Z,101157.44
2022-10-26T16:49:33.462Z,101162.34
2022-10-26T16:54:36.018Z,101170.22
2022-10-26T16:59:38.407Z,101181.53
2022-10-26T17:04:40.679Z,101182.09
2022-10-26T17:09:44.479Z,101182.31
2022-10-26T17:14:47.302Z,101175.94
2022-10-26T17:19:49.867Z,101193.53
2022-10-26T17:24:52.141Z,101191.66
2022-10-26T17:29:54.405Z,101200.88
2022-10-26T17:34:56.793Z,101189.50
2022-10-26T17:39:59.066Z,101204.72
2022-10-26T17:45:01.356Z,101208.66
2022-10-26T17:50:05.031Z,101202.22
2022-10-26T17:55:07.452Z,101212.06
2022-10-26T18:00:10.306Z,101211.31
2022-10-26T18:05:15.606Z,101212.00
2022-10-26T18:10:36.928Z,101212.75
2022-10-26T18:15:40.299Z,101219.06
2022-10-26T18:20:42.626Z,101214.81
2022-10-26T18:25:44.993Z,101206.50
2022-10-26T18:30:47.292Z,101209.91
2022-10-26T18:35:50.047Z,101218.16
2022-10-26T18:40:53.773Z,101229.72
2022-10-26T18:46:06.305Z,101233.81
2022-10-26T18:51:11.019Z,101242.53
2022-10-26T18:56:20.921Z,101243.34
2022-10-26T19:01:26.002Z,101239.78
2022-10-26T19:06:31.355Z,101241.22
2022-10-26T19:11:34.323Z,101260.66
2022-10-26T19:16:52.404Z,101271.28
2022-10-26T19:21:54.806Z,101284.09
2022-10-26T19:26:57.244Z,101248.09
2022-10-26T19:31:59.847Z,101292.69
2022-10-26T19:37:02.198Z,101288.56
2022-10-26T19:42:04.653Z,101299.75
2022-10-26T19:47:07.173Z,101295.69
2022-10-26T19:52:09.593Z,101299.44
2022-10-26T19:57:12.194Z,101315.41
2022-10-26T20:02:14.636Z,101323.03
2022-10-26T20:07:19.158Z,101322.53
2022-10-26T20:12:23.296Z,101318.75
2022-10-26T20:17:28.498Z,101318.69
2022-10-26T20:22:31.144Z,101323.28
2022-10-26T20:27:42.295Z,101324.81
2022-10-26T20:32:45.491Z,101329.13
2022-10-26T20:37:48.744Z,101329.03
2022-10-26T20:42:52.864Z,101311.28
2022-10-26T20:47:57.768Z,101312.72
2022-10-26T20:53:37.325Z,101320.41
2022-10-26T20:58:45.038Z,101309.53
2022-10-26T21:03:47.624Z,101318.66
2022-10-26T21:08:51.339Z,101319.69
2022-10-26T21:13:55.670Z,101320.81
2022-10-26T21:19:01.478Z,101323.91
2022-10-26T21:24:04.234Z,101322.38
2022-10-26T21:29:07.692Z,101317.16
2022-10-26T21:34:12.452Z,101340.88
2022-10-26T21:39:18.365Z,101338.66
2022-10-26T21:44:35.610Z,101337.31
2022-10-26T21:49:42.895Z,101342.59
2022-10-26T21:54:48.240Z,101345.69
2022-10-26T21:59:50.974Z,101331.38
2022-10-26T22:04:58.991Z,101325.25
2022-10-26T22:10:11.531Z,101324.00
2022-10-26T22:15:14.095Z,101324.22
2022-10-26T22:20:16.503Z,101328.59
2022-10-26T22:25:18.824Z,101322.03
2022-10-26T22:30:21.493Z,101333.56
2022-10-26T22:35:29.351Z,101334.28
2022-10-26T22:40:31.930Z,101340.91
2022-10-26T22:45:34.248Z,101334.47
2022-10-26T22:50:38.503Z,101339.16
2022-10-26T22:55:42.430Z,101335.22
2022-10-26T23:00:44.832Z,101349.91
2022-10-26T23:05:50.211Z,101341.94
2022-10-26T23:10:52.547Z,101340.75
2022-10-26T23:15:55.069Z,101330.94
2022-10-26T23:20:57.546Z,101329.34
2022-10-26T23:26:05.055Z,101321.00
2022-10-26T23:31:07.870Z,101332.88
2022-10-26T23:36:10.369Z,101332.63
2022-10-26T23:41:13.170Z,101333.97
2022-10-26T23:46:15.755Z,101333.22
2022-10-26T23:51:18.125Z,101320.91
2022-10-26T23:56:20.407Z,101320.50
